createdAt,value
2018-08-17T00:00:32.091Z,18.20
2018-08-17T00:03:00.768Z,19.50
2018-08-17T00:05:29.576Z,21.10
2018-08-17T00:07:58.266Z,19.10
2018-08-17T00:10:26.968Z,18.50
2018-08-17T00:12:55.635Z,18.33
2018-08-17T00:15:24.288Z,16.90
2018-08-17T00:17:53.057Z,16.80
2018-08-17T00:20:21.712Z,15.90
2018-08-17T00:22:50.361Z,16.60
2018-08-17T00:25:19.014Z,19.73
2018-08-17T00:27:47.723Z,18.23
2018-08-17T00:30:16.375Z,18.97
2018-08-17T00:32:45.020Z,18.73
2018-08-17T00:35:13.692Z,18.97
2018-08-17T00:37:42.331Z,20.30
2018-08-17T00:40:11.003Z,21.20
2018-08-17T00:42:39.635Z,22.17
2018-08-17T00:45:08.434Z,20.67
2018-08-17T00:47:37.085Z,21.50
2018-08-17T00:50:06.405Z,19.80
2018-08-17T00:52:35.052Z,22.93
2018-08-17T00:55:03.741Z,24.83
2018-08-17T00:57:32.365Z,24.33
2018-08-17T01:00:01.013Z,24.73
2018-08-17T01:02:29.651Z,26.70
2018-08-17T01:04:58.307Z,24.03
2018-08-17T01:07:27.020Z,26.70
2018-08-17T01:09:55.673Z,24.90
2018-08-17T01:12:24.323Z,26.77
2018-08-17T01:14:52.974Z,25.40
2018-08-17T01:17:21.632Z,25.03
2018-08-17T01:19:50.340Z,27.47
2018-08-17T01:22:18.963Z,27.60
2018-08-17T01:24:47.616Z,25.77
2018-08-17T01:27:16.245Z,26.10
2018-08-17T01:29:44.895Z,27.37
2018-08-17T01:32:13.514Z,25.93
2018-08-17T01:34:42.162Z,25.13
2018-08-17T01:37:10.778Z,26.37
2018-08-17T01:39:39.437Z,26.17
2018-08-17T01:42:08.100Z,24.80
2018-08-17T01:44:36.749Z,24.00
2018-08-17T01:47:05.375Z,25.00
2018-08-17T01:49:34.017Z,24.17
2018-08-17T01:52:02.642Z,22.90
2018-08-17T01:54:31.288Z,22.53
2018-08-17T01:56:59.921Z,22.17
2018-08-17T01:59:28.626Z,22.50
2018-08-17T02:01:57.261Z,22.90
2018-08-17T02:04:25.916Z,34.27
2018-08-17T02:06:54.569Z,32.40
2018-08-17T02:09:23.227Z,32.00
2018-08-17T02:11:51.862Z,30.80
2018-08-17T02:14:20.509Z,33.10
2018-08-17T02:16:49.138Z,29.60
2018-08-17T02:19:17.833Z,30.03
2018-08-17T02:21:46.479Z,30.13
2018-08-17T02:24:15.176Z,29.27
2018-08-17T02:26:43.831Z,28.80
2018-08-17T02:29:12.495Z,29.73
2018-08-17T02:31:41.125Z,27.77
2018-08-17T02:34:09.756Z,27.77
2018-08-17T02:36:38.407Z,28.67
2018-08-17T02:39:07.808Z,28.87
2018-08-17T02:41:36.496Z,27.40
2018-08-17T02:44:05.128Z,27.30
2018-08-17T02:46:33.778Z,26.83
2018-08-17T02:49:02.422Z,25.30
2018-08-17T02:51:31.082Z,26.37
2018-08-17T02:53:59.722Z,27.60
2018-08-17T02:56:28.483Z,27.90
2018-08-17T02:58:57.129Z,26.37
2018-08-17T03:01:25.788Z,25.90
2018-08-17T03:03:54.556Z,24.27
2018-08-17T03:06:23.227Z,26.20
2018-08-17T03:08:51.851Z,26.07
2018-08-17T03:11:20.500Z,26.27
2018-08-17T03:13:49.254Z,25.70
2018-08-17T03:16:17.910Z,25.10
2018-08-17T03:18:46.666Z,25.70
2018-08-17T03:21:15.334Z,26.00
2018-08-17T03:23:43.982Z,25.07
2018-08-17T03:26:12.679Z,23.73
2018-08-17T03:28:41.330Z,25.17
2018-08-17T03:31:10.041Z,24.63
2018-08-17T03:33:38.676Z,25.83
2018-08-17T03:36:07.351Z,24.40
2018-08-17T03:38:35.987Z,25.40
2018-08-17T03:41:04.662Z,25.27
2018-08-17T03:43:33.293Z,24.43
2018-08-17T03:46:01.973Z,24.70
2018-08-17T03:48:30.668Z,23.13
2018-08-17T03:50:59.337Z,22.80
2018-08-17T03:53:27.971Z,23.80
2018-08-17T03:55:56.643Z,23.90
2018-08-17T03:58:25.289Z,24.83
2018-08-17T04:00:54.043Z,20.97
2018-08-17T04:03:22.689Z,26.00
2018-08-17T04:05:51.384Z,22.10
2018-08-17T04:08:20.007Z,23.27
2018-08-17T04:10:48.677Z,25.50
2018-08-17T04:13:17.333Z,25.73
2018-08-17T04:15:46.037Z,23.83
2018-08-17T04:18:14.681Z,26.17
2018-08-17T04:20:43.318Z,25.80
2018-08-17T04:23:11.939Z,24.27
2018-08-17T04:25:40.594Z,25.17
2018-08-17T04:28:09.288Z,23.60
2018-08-17T04:30:37.948Z,24.27
2018-08-17T04:33:06.569Z,24.93
2018-08-17T04:35:35.317Z,22.87
2018-08-17T04:38:03.919Z,22.93
2018-08-17T04:40:32.544Z,21.63
2018-08-17T04:43:01.182Z,20.50
2018-08-17T04:45:29.828Z,21.37
2018-08-17T04:47:58.491Z,20.20
2018-08-17T04:50:27.113Z,19.33
2018-08-17T04:52:55.777Z,19.23
2018-08-17T04:55:24.404Z,19.87
2018-08-17T04:57:53.056Z,19.80
2018-08-17T05:00:21.707Z,20.07
2018-08-17T05:02:50.352Z,19.67
2018-08-17T05:05:18.993Z,20.30
2018-08-17T05:07:47.632Z,21.70
2018-08-17T05:10:16.260Z,18.87
2018-08-17T05:12:44.904Z,18.60
2018-08-17T05:15:13.527Z,19.13
2018-08-17T05:17:42.208Z,18.03
2018-08-17T05:20:10.852Z,17.40
2018-08-17T05:22:39.518Z,16.70
2018-08-17T05:25:08.180Z,16.70
2018-08-17T05:27:36.910Z,16.67
2018-08-17T05:30:05.909Z,16.80
2018-08-17T05:32:34.585Z,16.60
2018-08-17T05:35:10.100Z,14.77
2018-08-17T05:37:38.775Z,15.00
2018-08-17T05:40:08.328Z,14.37
2018-08-17T05:42:37.556Z,14.77
2018-08-17T05:45:07.644Z,15.40
2018-08-17T05:47:36.363Z,15.90
2018-08-17T05:50:05.544Z,15.33
2018-08-17T05:52:34.243Z,16.00
2018-08-17T05:55:02.888Z,15.60
2018-08-17T05:57:31.551Z,15.03
2018-08-17T06:00:00.219Z,14.00
2018-08-17T06:02:28.883Z,14.40
2018-08-17T06:04:57.535Z,12.93
2018-08-17T06:07:26.220Z,13.90
2018-08-17T06:09:54.863Z,13.83
2018-08-17T06:12:23.611Z,13.83
2018-08-17T06:14:52.269Z,13.20
2018-08-17T06:17:20.931Z,12.73
2018-08-17T06:19:49.569Z,13.43
2018-08-17T06:22:20.721Z,12.23
2018-08-17T06:24:50.650Z,12.30
2018-08-17T06:27:19.393Z,12.57
2018-08-17T06:29:48.246Z,12.80
2018-08-17T06:32:16.928Z,12.70
2018-08-17T06:34:45.586Z,13.63
2018-08-17T06:37:14.323Z,14.00
2018-08-17T06:39:42.972Z,13.33
2018-08-17T06:42:11.627Z,14.10
2018-08-17T06:44:40.255Z,12.67
2018-08-17T06:47:08.922Z,13.53
2018-08-17T06:49:37.548Z,12.30
2018-08-17T06:52:06.283Z,12.53
2018-08-17T06:54:38.044Z,12.40
2018-08-17T06:57:06.818Z,13.50
2018-08-17T06:59:35.474Z,12.53
2018-08-17T07:02:04.155Z,11.90
2018-08-17T07:04:32.838Z,11.73
2018-08-17T07:07:01.479Z,12.33
2018-08-17T07:09:30.163Z,10.63
2018-08-17T07:11:58.830Z,10.10
2018-08-17T07:14:27.490Z,11.57
2018-08-17T07:16:56.135Z,11.10
2018-08-17T07:19:24.836Z,11.00
2018-08-17T07:21:53.463Z,10.50
2018-08-17T07:24:22.098Z,9.50
2018-08-17T07:26:50.764Z,9.50
2018-08-17T07:29:19.428Z,9.30
2018-08-17T07:31:48.061Z,9.17
2018-08-17T07:34:16.706Z,7.00
2018-08-17T07:36:45.327Z,8.27
2018-08-17T07:39:13.998Z,7.80
2018-08-17T07:41:42.717Z,7.40
2018-08-17T07:44:11.339Z,7.47
2018-08-17T07:46:39.998Z,7.20
2018-08-17T07:49:08.770Z,6.90
2018-08-17T07:51:37.453Z,5.47
2018-08-17T07:54:06.102Z,5.20
2018-08-17T07:56:34.714Z,5.37
2018-08-17T07:59:03.453Z,5.20
2018-08-17T08:01:32.084Z,5.50
2018-08-17T08:04:00.741Z,3.70
2018-08-17T08:06:29.363Z,3.90
2018-08-17T08:08:58.035Z,3.10
2018-08-17T08:11:26.642Z,2.77
2018-08-17T08:13:55.276Z,3.03
2018-08-17T08:16:23.899Z,2.60
2018-08-17T08:18:52.571Z,2.53
2018-08-17T08:21:21.204Z,2.80
2018-08-17T08:23:49.862Z,2.60
2018-08-17T08:26:18.500Z,2.33
2018-08-17T08:28:47.166Z,2.50
2018-08-17T08:31:15.862Z,2.83
2018-08-17T08:33:44.549Z,2.90
2018-08-17T08:36:13.216Z,2.87
2018-08-17T08:38:41.875Z,2.50
2018-08-17T08:41:10.499Z,2.50
2018-08-17T08:43:39.146Z,2.63
2018-08-17T08:46:07.796Z,2.30
2018-08-17T08:48:36.439Z,2.67
2018-08-17T08:51:05.084Z,2.70
2018-08-17T08:53:33.735Z,2.60
2018-08-17T08:56:02.465Z,3.00
2018-08-17T08:58:31.082Z,2.73
2018-08-17T09:00:59.752Z,2.90
2018-08-17T09:03:28.374Z,2.90
2018-08-17T09:05:57.036Z,3.30
2018-08-17T09:08:25.666Z,3.13
2018-08-17T09:10:54.329Z,2.97
2018-08-17T09:13:22.991Z,2.77
2018-08-17T09:15:51.655Z,2.83
2018-08-17T09:18:20.303Z,2.63
2018-08-17T09:20:49.051Z,3.20
2018-08-17T09:23:17.676Z,3.00
2018-08-17T09:25:46.308Z,3.50
2018-08-17T09:28:14.931Z,3.00
2018-08-17T09:30:43.573Z,3.53
2018-08-17T09:33:12.191Z,3.20
2018-08-17T09:35:40.846Z,3.00
2018-08-17T09:38:09.480Z,3.20
2018-08-17T09:40:38.115Z,4.00
2018-08-17T09:43:06.988Z,3.90
2018-08-17T09:45:35.625Z,3.80
2018-08-17T09:48:04.264Z,4.30
2018-08-17T09:50:32.968Z,3.53
2018-08-17T09:53:01.576Z,3.10
2018-08-17T09:55:30.382Z,3.53
2018-08-17T09:57:58.991Z,4.30
2018-08-17T10:00:33.040Z,3.53
2018-08-17T10:03:06.901Z,3.93
2018-08-17T10:05:41.711Z,4.00
2018-08-17T10:08:15.459Z,3.63
2018-08-17T10:10:44.567Z,3.73
2018-08-17T10:13:13.249Z,3.20
2018-08-17T10:15:41.922Z,3.57
2018-08-17T10:18:10.611Z,3.67
2018-08-17T10:20:39.324Z,3.40
2018-08-17T10:23:13.520Z,3.60
2018-08-17T10:25:42.247Z,3.57
2018-08-17T10:28:10.856Z,3.90
2018-08-17T10:30:39.504Z,4.10
2018-08-17T10:33:08.144Z,3.00
2018-08-17T10:35:37.215Z,4.00
2018-08-17T10:38:07.092Z,4.07
2018-08-17T10:40:35.852Z,3.60
2018-08-17T10:43:06.163Z,3.93
2018-08-17T10:45:35.203Z,3.83
2018-08-17T10:48:03.830Z,4.13
2018-08-17T10:50:33.701Z,3.43
2018-08-17T10:53:03.585Z,3.87
2018-08-17T10:55:39.851Z,4.13
2018-08-17T10:58:09.908Z,3.97
2018-08-17T11:00:38.598Z,3.40
2018-08-17T11:03:07.266Z,4.20
2018-08-17T11:05:35.938Z,3.53
2018-08-17T11:08:04.644Z,3.53
2018-08-17T11:10:33.292Z,3.67
2018-08-17T11:13:01.904Z,3.83
2018-08-17T11:15:30.542Z,3.37
2018-08-17T11:17:59.208Z,3.60
2018-08-17T11:20:27.905Z,3.77
2018-08-17T11:22:56.562Z,3.20
2018-08-17T11:25:25.259Z,3.80
2018-08-17T11:27:53.949Z,3.30
2018-08-17T11:30:22.589Z,3.30
2018-08-17T11:32:51.255Z,3.83
2018-08-17T11:35:19.912Z,3.90
2018-08-17T11:37:48.566Z,3.30
2018-08-17T11:40:17.217Z,3.00
2018-08-17T11:42:49.104Z,3.50
2018-08-17T11:45:24.566Z,3.53
2018-08-17T11:47:53.993Z,3.33
2018-08-17T11:50:23.919Z,3.40
2018-08-17T11:52:57.699Z,3.33
2018-08-17T11:55:27.743Z,3.43
2018-08-17T11:57:56.701Z,3.10
2018-08-17T12:00:25.700Z,2.90
2018-08-17T12:02:54.352Z,3.30
2018-08-17T12:05:22.987Z,2.80
2018-08-17T12:07:51.647Z,2.70
2018-08-17T12:10:20.281Z,3.87
2018-08-17T12:12:48.940Z,3.07
2018-08-17T12:15:18.424Z,2.80
2018-08-17T12:17:47.099Z,3.20
2018-08-17T12:20:15.707Z,3.10
2018-08-17T12:22:44.348Z,3.03
2018-08-17T12:25:13.091Z,3.40
2018-08-17T12:27:46.936Z,2.90
2018-08-17T12:30:15.556Z,3.07
2018-08-17T12:32:44.203Z,2.67
2018-08-17T12:35:12.826Z,2.57
2018-08-17T12:37:41.464Z,3.00
2018-08-17T12:40:10.218Z,2.53
2018-08-17T12:42:39.438Z,2.63
2018-08-17T12:45:13.391Z,2.80
2018-08-17T12:47:42.030Z,2.97
2018-08-17T12:50:10.644Z,2.77
2018-08-17T12:52:39.283Z,2.80
2018-08-17T12:55:07.914Z,3.03
2018-08-17T12:57:42.219Z,2.93
2018-08-17T13:00:11.908Z,2.83
2018-08-17T13:02:40.604Z,3.10
2018-08-17T13:05:09.297Z,2.93
2018-08-17T13:07:37.948Z,2.53
2018-08-17T13:10:06.616Z,2.50
2018-08-17T13:12:35.270Z,2.40
2018-08-17T13:15:04.001Z,3.10
2018-08-17T13:17:37.903Z,2.87
2018-08-17T13:20:06.912Z,2.60
2018-08-17T13:22:35.595Z,2.30
2018-08-17T13:25:04.310Z,2.73
2018-08-17T13:27:32.939Z,2.93
2018-08-17T13:30:01.574Z,3.27
2018-08-17T13:32:30.231Z,3.17
2018-08-17T13:34:58.855Z,3.50
2018-08-17T13:37:27.502Z,3.40
2018-08-17T13:39:56.172Z,3.07
2018-08-17T13:42:24.901Z,3.17
2018-08-17T13:44:53.460Z,3.90
2018-08-17T13:47:22.095Z,3.10
2018-08-17T13:49:50.715Z,3.40
2018-08-17T13:52:19.375Z,3.50
2018-08-17T13:54:47.980Z,2.80
2018-08-17T13:57:16.623Z,3.03
2018-08-17T13:59:45.315Z,4.17
2018-08-17T14:02:14.012Z,3.57
2018-08-17T14:04:42.645Z,4.17
2018-08-17T14:07:11.275Z,3.57
2018-08-17T14:09:39.981Z,3.50
2018-08-17T14:12:09.269Z,3.60
2018-08-17T14:14:37.923Z,3.90
2018-08-17T14:17:07.070Z,4.07
2018-08-17T14:19:36.040Z,3.83
2018-08-17T14:22:04.900Z,3.83
2018-08-17T14:24:33.561Z,4.30
2018-08-17T14:27:02.214Z,4.10
2018-08-17T14:29:30.873Z,3.97
2018-08-17T14:31:59.516Z,4.13
2018-08-17T14:34:28.221Z,3.90
2018-08-17T14:36:56.886Z,3.97
2018-08-17T14:39:25.538Z,3.93
2018-08-17T14:41:58.031Z,3.50
2018-08-17T14:44:27.379Z,2.73
2018-08-17T14:46:56.191Z,3.20
2018-08-17T14:49:25.504Z,3.00
2018-08-17T14:51:54.182Z,2.97
2018-08-17T14:54:22.898Z,2.70
2018-08-17T14:56:51.560Z,2.87
2018-08-17T14:59:20.237Z,2.93
2018-08-17T15:01:48.858Z,2.90
2018-08-17T15:04:17.533Z,2.70
2018-08-17T15:06:46.208Z,2.60
2018-08-17T15:09:15.468Z,2.60
2018-08-17T15:11:44.752Z,3.00
2018-08-17T15:14:14.394Z,2.60
2018-08-17T15:16:43.692Z,2.97
2018-08-17T15:19:12.599Z,2.80
2018-08-17T15:21:41.648Z,2.40
2018-08-17T15:24:11.058Z,3.00
2018-08-17T15:26:39.821Z,2.50
2018-08-17T15:29:08.524Z,2.53
2018-08-17T15:31:37.171Z,2.70
2018-08-17T15:34:05.851Z,2.60
2018-08-17T15:36:34.499Z,2.50
2018-08-17T15:39:03.280Z,2.93
2018-08-17T15:41:31.951Z,2.70
2018-08-17T15:44:00.588Z,2.10
2018-08-17T15:46:31.472Z,2.03
2018-08-17T15:49:00.116Z,2.17
2018-08-17T15:51:28.769Z,2.10
2018-08-17T15:53:57.407Z,1.80
2018-08-17T15:56:26.022Z,1.77
2018-08-17T15:58:54.693Z,2.00
2018-08-17T16:01:23.366Z,1.80
2018-08-17T16:03:52.331Z,1.90
2018-08-17T16:06:20.951Z,1.90
2018-08-17T16:08:49.595Z,1.97
2018-08-17T16:11:18.244Z,1.80
2018-08-17T16:13:46.888Z,1.50
2018-08-17T16:16:15.561Z,1.77
2018-08-17T16:18:44.245Z,1.90
2018-08-17T16:21:12.911Z,1.63
2018-08-17T16:23:41.575Z,1.63
2018-08-17T16:26:10.228Z,2.07
2018-08-17T16:28:38.864Z,2.00
2018-08-17T16:31:07.509Z,2.10
2018-08-17T16:33:36.148Z,1.80
2018-08-17T16:36:04.909Z,1.87
2018-08-17T16:38:37.727Z,2.20
2018-08-17T16:41:06.680Z,1.97
2018-08-17T16:43:42.790Z,2.20
2018-08-17T16:46:11.740Z,1.90
2018-08-17T16:48:41.347Z,1.60
2018-08-17T16:51:10.280Z,1.93
2018-08-17T16:53:38.901Z,1.50
2018-08-17T16:56:07.596Z,1.90
2018-08-17T16:58:36.233Z,2.20
2018-08-17T17:01:04.950Z,1.60
2018-08-17T17:03:33.591Z,2.00
2018-08-17T17:06:04.359Z,1.90
2018-08-17T17:08:33.341Z,2.17
2018-08-17T17:11:02.779Z,1.90
2018-08-17T17:13:31.423Z,1.60
2018-08-17T17:16:00.107Z,2.10
2018-08-17T17:18:28.823Z,2.07
2018-08-17T17:20:57.544Z,2.20
2018-08-17T17:23:26.151Z,1.83
2018-08-17T17:25:54.843Z,1.90
2018-08-17T17:28:23.569Z,1.90
2018-08-17T17:30:53.032Z,1.80
2018-08-17T17:33:22.143Z,2.30
2018-08-17T17:35:50.871Z,2.00
2018-08-17T17:38:19.492Z,2.50
2018-08-17T17:40:48.219Z,2.27
2018-08-17T17:43:16.883Z,2.53
2018-08-17T17:45:45.561Z,2.60
2018-08-17T17:48:14.218Z,3.00
2018-08-17T17:50:42.880Z,2.70
2018-08-17T17:53:11.516Z,2.60
2018-08-17T17:55:45.384Z,3.00
2018-08-17T17:58:14.612Z,2.60
2018-08-17T18:00:53.024Z,3.50
2018-08-17T18:03:21.685Z,3.10
2018-08-17T18:05:50.351Z,3.40
2018-08-17T18:08:19.347Z,3.40
2018-08-17T18:10:48.704Z,3.53
2018-08-17T18:13:17.539Z,3.60
2018-08-17T18:15:46.252Z,3.43
2018-08-17T18:18:14.939Z,3.97
2018-08-17T18:20:43.628Z,4.40
2018-08-17T18:23:12.245Z,4.10
2018-08-17T18:25:40.901Z,4.63
2018-08-17T18:28:09.900Z,4.50
2018-08-17T18:30:38.623Z,4.03
2018-08-17T18:33:07.561Z,4.40
2018-08-17T18:35:36.204Z,4.83
2018-08-17T18:38:04.888Z,4.30
2018-08-17T18:40:33.520Z,4.60
2018-08-17T18:43:02.186Z,4.40
2018-08-17T18:45:30.864Z,4.50
2018-08-17T18:47:59.539Z,5.10
2018-08-17T18:50:28.170Z,5.47
2018-08-17T18:52:56.867Z,5.27
2018-08-17T18:55:25.530Z,5.60
2018-08-17T18:57:54.195Z,5.20
2018-08-17T19:00:22.823Z,5.07
2018-08-17T19:02:51.484Z,4.73
2018-08-17T19:05:20.152Z,5.47
2018-08-17T19:07:48.818Z,5.50
2018-08-17T19:10:17.473Z,5.83
2018-08-17T19:12:46.152Z,5.87
2018-08-17T19:15:14.778Z,5.47
2018-08-17T19:17:43.508Z,5.40
2018-08-17T19:20:13.432Z,5.90
2018-08-17T19:22:45.810Z,5.97
2018-08-17T19:25:15.752Z,5.93
2018-08-17T19:27:44.887Z,5.80
2018-08-17T19:30:27.106Z,5.77
2018-08-17T19:32:57.229Z,5.63
2018-08-17T19:35:25.891Z,5.50
2018-08-17T19:37:54.594Z,5.50
2018-08-17T19:40:23.658Z,6.03
2018-08-17T19:42:52.339Z,5.83
2018-08-17T19:45:21.383Z,6.03
2018-08-17T19:47:50.255Z,6.20
2018-08-17T19:50:18.963Z,6.60
2018-08-17T19:52:47.627Z,6.53
2018-08-17T19:55:16.516Z,6.70
2018-08-17T19:57:45.180Z,5.80
2018-08-17T20:00:14.331Z,5.50
2018-08-17T20:02:43.215Z,5.87
2018-08-17T20:05:11.894Z,6.40
2018-08-17T20:07:40.692Z,5.47
2018-08-17T20:10:11.082Z,5.60
2018-08-17T20:12:39.783Z,5.83
2018-08-17T20:15:08.946Z,5.73
2018-08-17T20:17:38.215Z,5.70
2018-08-17T20:20:09.612Z,6.00
2018-08-17T20:22:38.270Z,6.20
2018-08-17T20:25:14.079Z,6.80
2018-08-17T20:27:43.066Z,6.57
2018-08-17T20:30:17.109Z,7.47
2018-08-17T20:32:46.285Z,6.73
2018-08-17T20:35:14.944Z,6.00
2018-08-17T20:37:46.944Z,6.47
2018-08-17T20:40:15.907Z,6.27
2018-08-17T20:42:44.649Z,6.10
2018-08-17T20:45:13.302Z,6.47
2018-08-17T20:47:42.641Z,6.40
2018-08-17T20:50:13.463Z,6.10
2018-08-17T20:52:49.261Z,6.87
2018-08-17T20:55:18.359Z,7.20
2018-08-17T20:57:49.859Z,7.23
2018-08-17T21:00:18.733Z,6.90
2018-08-17T21:02:47.664Z,7.50
2018-08-17T21:05:16.526Z,7.60
2018-08-17T21:07:45.783Z,7.90
2018-08-17T21:10:14.415Z,7.17
2018-08-17T21:12:43.067Z,7.10
2018-08-17T21:15:11.703Z,5.77
2018-08-17T21:17:40.374Z,4.10
2018-08-17T21:20:09.043Z,5.90
2018-08-17T21:22:37.706Z,6.30
2018-08-17T21:25:06.589Z,7.67
2018-08-17T21:27:35.345Z,7.17
2018-08-17T21:30:04.529Z,7.20
2018-08-17T21:32:33.239Z,8.07
2018-08-17T21:35:01.959Z,7.47
2018-08-17T21:37:30.645Z,8.03
2018-08-17T21:39:59.288Z,7.10
2018-08-17T21:42:27.981Z,6.90
2018-08-17T21:44:56.688Z,6.90
2018-08-17T21:47:25.326Z,7.50
2018-08-17T21:50:00.215Z,7.20
2018-08-17T21:52:29.210Z,7.70
2018-08-17T21:54:57.888Z,7.50
2018-08-17T21:57:26.519Z,6.90
2018-08-17T21:59:55.403Z,7.57
2018-08-17T22:02:24.188Z,7.83
2018-08-17T22:04:52.799Z,7.97
2018-08-17T22:07:23.283Z,9.00
2018-08-17T22:09:52.831Z,6.37
2018-08-17T22:12:21.779Z,6.90
2018-08-17T22:14:50.873Z,6.73
2018-08-17T22:17:31.650Z,6.90
2018-08-17T22:20:00.537Z,6.40
2018-08-17T22:22:29.226Z,8.20
2018-08-17T22:24:58.985Z,7.33
2018-08-17T22:27:28.890Z,7.87
2018-08-17T22:29:58.671Z,8.13
2018-08-17T22:32:27.334Z,6.90
2018-08-17T22:34:56.247Z,6.00
2018-08-17T22:37:24.886Z,5.90
2018-08-17T22:39:53.568Z,5.03
2018-08-17T22:42:23.112Z,6.03
2018-08-17T22:44:52.091Z,6.33
2018-08-17T22:47:22.922Z,6.50
2018-08-17T22:49:52.461Z,7.10
2018-08-17T22:52:21.255Z,6.60
2018-08-17T22:54:56.018Z,7.30
2018-08-17T22:57:25.309Z,6.23
2018-08-17T23:00:17.409Z,6.30
2018-08-17T23:02:47.064Z,5.67
2018-08-17T23:05:18.979Z,7.63
2018-08-17T23:07:47.639Z,5.00
2018-08-17T23:10:19.126Z,4.00
2018-08-17T23:12:48.841Z,3.73
2018-08-17T23:15:17.528Z,4.37
2018-08-17T23:17:51.166Z,5.20
2018-08-17T23:20:25.223Z,6.77
2018-08-17T23:22:55.223Z,5.80
2018-08-17T23:25:23.895Z,6.43
2018-08-17T23:27:52.942Z,6.40
2018-08-17T23:30:21.612Z,7.07
2018-08-17T23:32:50.435Z,6.63
2018-08-17T23:35:19.102Z,6.40
2018-08-17T23:37:47.751Z,5.83
2018-08-17T23:40:16.435Z,6.23
2018-08-17T23:42:45.092Z,6.47
2018-08-17T23:45:15.427Z,6.30
2018-08-17T23:47:44.157Z,6.93
2018-08-17T23:50:13.852Z,6.80
2018-08-17T23:52:42.741Z,8.07
2018-08-17T23:55:13.944Z,7.40
2018-08-17T23:57:42.606Z,7.10
